createdAt,value
2022-11-15T00:02:15.651Z,10.33
2022-11-15T00:08:18.568Z,8.10
2022-11-15T00:14:20.536Z,8.30
2022-11-15T00:20:22.406Z,7.97
2022-11-15T00:26:24.317Z,8.30
2022-11-15T00:32:26.210Z,8.87
2022-11-15T00:38:35.222Z,7.27
2022-11-15T00:44:37.474Z,6.47
2022-11-15T00:50:39.352Z,7.70
2022-11-15T00:56:41.226Z,6.53
2022-11-15T01:02:43.131Z,6.83
2022-11-15T01:08:45.053Z,6.33
2022-11-15T01:14:46.941Z,5.13
2022-11-15T01:20:48.831Z,6.10
2022-11-15T01:26:50.825Z,6.70
2022-11-15T01:32:52.747Z,5.30
2022-11-15T01:38:59.902Z,4.40
2022-11-15T01:45:02.003Z,5.20
2022-11-15T01:51:10.553Z,5.33
2022-11-15T01:57:14.271Z,4.90
2022-11-15T02:03:16.802Z,4.73
2022-11-15T02:09:19.228Z,4.60
2022-11-15T02:15:21.974Z,5.00
2022-11-15T02:21:50.753Z,4.60
2022-11-15T02:28:17.712Z,5.20
2022-11-15T02:34:37.629Z,6.23
2022-11-15T02:40:53.672Z,5.67
2022-11-15T02:47:16.090Z,5.93
2022-11-15T02:53:18.035Z,5.53
2022-11-15T02:59:53.050Z,7.37
2022-11-15T03:06:13.950Z,6.50
2022-11-15T03:12:42.708Z,7.00
2022-11-15T03:18:54.582Z,5.70
2022-11-15T03:25:01.791Z,6.63
2022-11-15T03:31:25.095Z,6.30
2022-11-15T03:37:41.468Z,6.57
2022-11-15T03:44:11.006Z,6.33
2022-11-15T03:50:18.101Z,6.77
2022-11-15T03:56:20.073Z,6.10
2022-11-15T04:02:21.981Z,5.13
2022-11-15T04:08:23.879Z,4.83
2022-11-15T04:14:25.777Z,6.40
2022-11-15T04:20:49.062Z,5.43
2022-11-15T04:26:50.976Z,5.67
2022-11-15T04:32:52.945Z,5.40
2022-11-15T04:38:54.811Z,5.30
2022-11-15T04:44:57.015Z,5.53
2022-11-15T04:50:59.434Z,4.83
2022-11-15T04:57:01.422Z,5.03
2022-11-15T05:03:22.204Z,3.97
2022-11-15T05:09:24.157Z,4.67
2022-11-15T05:15:26.117Z,4.80
2022-11-15T05:21:28.435Z,5.07
2022-11-15T05:27:30.519Z,4.50
2022-11-15T05:33:33.594Z,4.90
2022-11-15T05:39:35.661Z,5.00
2022-11-15T05:45:37.814Z,4.33
2022-11-15T05:51:40.793Z,4.50
2022-11-15T05:57:43.024Z,4.37
2022-11-15T06:03:44.933Z,5.13
2022-11-15T06:09:46.863Z,4.10
2022-11-15T06:15:48.798Z,4.60
2022-11-15T06:21:50.683Z,4.50
2022-11-15T06:27:54.373Z,3.90
2022-11-15T06:33:56.276Z,4.77
2022-11-15T06:39:58.182Z,3.43
2022-11-15T06:46:01.433Z,4.57
2022-11-15T06:52:03.357Z,4.50
2022-11-15T06:58:05.242Z,4.80
2022-11-15T07:04:07.134Z,4.77
2022-11-15T07:10:09.827Z,4.57
2022-11-15T07:16:12.062Z,4.97
2022-11-15T07:22:13.969Z,5.30
2022-11-15T07:28:15.849Z,4.13
2022-11-15T07:34:17.938Z,5.93
2022-11-15T07:40:19.841Z,6.60
2022-11-15T07:46:21.766Z,5.60
2022-11-15T07:52:23.676Z,5.10
2022-11-15T07:58:25.563Z,5.13
2022-11-15T08:04:27.517Z,4.70
2022-11-15T08:10:30.332Z,5.53
2022-11-15T08:16:32.375Z,5.60
2022-11-15T08:22:35.000Z,5.47
2022-11-15T08:28:36.958Z,5.70
2022-11-15T08:34:39.603Z,6.13
2022-11-15T08:40:41.743Z,6.20
2022-11-15T08:46:46.163Z,6.30
2022-11-15T08:52:49.252Z,5.57
2022-11-15T08:58:51.242Z,5.60
2022-11-15T09:04:53.121Z,4.90
2022-11-15T09:10:55.039Z,5.70
2022-11-15T09:16:56.938Z,5.07
2022-11-15T09:23:04.219Z,5.60
2022-11-15T09:29:06.243Z,5.20
2022-11-15T09:35:08.395Z,4.93
2022-11-15T09:41:13.321Z,4.93
2022-11-15T09:47:52.529Z,4.97
2022-11-15T09:54:52.222Z,4.60
2022-11-15T10:00:56.113Z,5.37
2022-11-15T10:07:19.787Z,5.00
2022-11-15T10:13:27.912Z,4.03
2022-11-15T10:20:05.422Z,3.70
2022-11-15T10:26:15.920Z,4.37
2022-11-15T10:32:20.895Z,4.37
2022-11-15T10:38:22.818Z,4.00
2022-11-15T10:44:30.862Z,3.87
2022-11-15T10:50:33.948Z,3.37
2022-11-15T10:56:35.923Z,3.40
2022-11-15T11:02:57.260Z,3.53
2022-11-15T11:09:06.171Z,4.40
2022-11-15T11:15:15.855Z,3.30
2022-11-15T11:21:50.642Z,3.63
2022-11-15T11:28:12.748Z,3.70
2022-11-15T11:34:58.520Z,3.73
2022-11-15T11:41:09.190Z,3.33
2022-11-15T11:47:31.312Z,3.73
2022-11-15T11:53:48.964Z,3.50
2022-11-15T12:00:02.130Z,3.47
2022-11-15T12:06:31.080Z,3.27
2022-11-15T12:13:05.177Z,3.40
2022-11-15T12:19:09.542Z,3.20
2022-11-15T12:25:38.261Z,3.57
2022-11-15T12:31:46.344Z,3.50
2022-11-15T12:37:56.205Z,2.80
2022-11-15T12:44:00.255Z,2.90
2022-11-15T12:50:02.162Z,2.67
2022-11-15T12:56:12.996Z,3.40
2022-11-15T13:02:34.626Z,3.33
2022-11-15T13:08:48.575Z,3.23
2022-11-15T13:14:52.911Z,4.50
2022-11-15T13:20:59.415Z,3.20
2022-11-15T13:27:17.929Z,3.20
2022-11-15T13:33:38.492Z,3.00
2022-11-15T13:39:40.452Z,3.17
2022-11-15T13:45:42.370Z,3.40
2022-11-15T13:51:55.874Z,4.03
2022-11-15T13:58:01.844Z,3.57
2022-11-15T14:04:04.799Z,3.50
2022-11-15T14:10:28.698Z,3.73
2022-11-15T14:16:49.132Z,3.60
2022-11-15T14:22:56.834Z,3.50
2022-11-15T14:29:18.650Z,3.03
2022-11-15T14:35:23.655Z,3.03
2022-11-15T14:41:27.411Z,2.80
2022-11-15T14:47:29.317Z,3.60
2022-11-15T14:53:31.162Z,3.50
2022-11-15T14:59:33.039Z,3.40
2022-11-15T15:05:44.213Z,2.37
2022-11-15T15:11:46.754Z,2.87
2022-11-15T15:17:48.845Z,3.30
2022-11-15T15:23:51.938Z,2.63
2022-11-15T15:29:53.852Z,3.00
2022-11-15T15:35:55.761Z,3.47
2022-11-15T15:41:57.659Z,2.33
2022-11-15T15:47:59.647Z,2.50
2022-11-15T15:54:01.534Z,3.23
2022-11-15T16:00:05.761Z,3.83
2022-11-15T16:06:36.865Z,3.53
2022-11-15T16:12:38.782Z,3.20
2022-11-15T16:18:40.663Z,3.90
2022-11-15T16:24:42.583Z,3.60
2022-11-15T16:30:44.538Z,4.77
2022-11-15T16:36:46.439Z,3.80
2022-11-15T16:42:48.423Z,3.50
2022-11-15T16:48:50.811Z,3.73
2022-11-15T16:54:52.697Z,4.03
2022-11-15T17:00:56.987Z,4.53
2022-11-15T17:06:59.489Z,5.67
2022-11-15T17:13:01.374Z,5.03
2022-11-15T17:19:03.313Z,4.30
2022-11-15T17:25:05.920Z,4.60
2022-11-15T17:31:14.067Z,4.27
2022-11-15T17:37:15.997Z,4.87
2022-11-15T17:43:17.889Z,4.73
2022-11-15T17:49:19.764Z,4.50
2022-11-15T17:55:21.683Z,4.37
2022-11-15T18:01:30.590Z,3.80
2022-11-15T18:07:32.624Z,4.60
2022-11-15T18:13:39.536Z,4.10
2022-11-15T18:19:41.469Z,4.30
2022-11-15T18:25:43.845Z,4.57
2022-11-15T18:31:47.784Z,4.90
2022-11-15T18:37:49.867Z,5.10
2022-11-15T18:43:52.662Z,4.50
2022-11-15T18:49:54.738Z,5.13
2022-11-15T18:56:02.324Z,4.50
2022-11-15T19:02:04.389Z,4.30
2022-11-15T19:08:06.258Z,5.20
2022-11-15T19:14:13.763Z,4.97
2022-11-15T19:20:15.945Z,6.07
2022-11-15T19:26:18.056Z,5.30
2022-11-15T19:32:20.004Z,4.77
2022-11-15T19:38:23.251Z,5.57
2022-11-15T19:44:27.193Z,5.43
2022-11-15T19:50:29.087Z,5.50
2022-11-15T19:56:31.047Z,5.47
2022-11-15T20:02:32.991Z,5.47
2022-11-15T20:08:36.342Z,4.60
2022-11-15T20:14:38.529Z,4.23
2022-11-15T20:20:40.711Z,5.07
2022-11-15T20:26:43.710Z,4.87
2022-11-15T20:32:45.769Z,5.00
2022-11-15T20:38:47.673Z,5.00
2022-11-15T20:44:49.605Z,5.53
2022-11-15T20:50:51.640Z,5.93
2022-11-15T20:56:53.600Z,5.60
2022-11-15T21:02:55.590Z,5.67
2022-11-15T21:09:16.255Z,5.90
2022-11-15T21:15:18.840Z,5.60
2022-11-15T21:21:21.383Z,5.63
2022-11-15T21:27:23.298Z,6.00
2022-11-15T21:33:27.633Z,5.80
2022-11-15T21:39:29.518Z,5.70
2022-11-15T21:45:31.466Z,5.77
2022-11-15T21:51:34.174Z,5.50
2022-11-15T21:57:36.287Z,5.53
2022-11-15T22:03:38.191Z,5.30
2022-11-15T22:09:40.383Z,4.50
2022-11-15T22:15:45.820Z,4.40
2022-11-15T22:21:47.782Z,4.17
2022-11-15T22:27:49.728Z,4.70
2022-11-15T22:33:51.708Z,4.50
2022-11-15T22:39:53.621Z,4.70
2022-11-15T22:45:58.157Z,5.47
2022-11-15T22:52:00.074Z,5.23
2022-11-15T22:58:01.966Z,4.73
2022-11-15T23:04:04.203Z,5.20
2022-11-15T23:10:25.815Z,4.50
2022-11-15T23:16:34.472Z,5.87
2022-11-15T23:22:48.670Z,5.63
2022-11-15T23:28:50.592Z,5.20
2022-11-15T23:34:52.500Z,4.97
2022-11-15T23:40:55.461Z,5.10
2022-11-15T23:46:57.405Z,6.07
2022-11-15T23:52:59.357Z,5.33
2022-11-15T23:59:01.324Z,5.93
